Terminal Aerodrome Forecast
Issued by NWS

Home | Current Version | Previous Version | Text Only | Print | Product List | Glossary On
Versions: 1 2 3 4 5 6 7 8 9 10 11 12 13 14 15 16 17 18
000
FTPQ31 PGUM 212022 AAQ
TAFTRO
TAF AMD
PTRO 212022Z 2120/2218 VRB07KT P6SM VCSH FEW016 SCT040 BKN120=

USA.gov is the U.S. government's official web portal to all federal, state and local government web resources and services.